Ana Sayfa
METAR-TAF:

METAR-TAF

Havaalanları :

Macomb Municipal Airport

Macomb, Illinois, Amerika Birleşik Devletleri

Enlem: 40-31-13N, Boylam: 090-39-09W, yükseklik: 216 m

Güncel hava durumu gözlemi

Rapor saat 16:35 UTC de 31 dakika önce yapıldı.
Rüzgar güneybatıdan 5 kt
Sıcaklık 28°C
Nem 48%
Basınç 1012 hPa
Görüş mesafesi: 16.1 km
Açık gökyüzü

METAR: KMQB 181635Z AUTO 22005KT 10SM CLR 28/16 A2988 RMK AO2 T02790161

Saat: 12:06 (17:06 UTC)


TAF: eksik

4.000'den fazla havaalanı için hava durumu gözlemleri ve tahminleri (METAR ve TAF raporları).

Kullanılabilir istasyonlar harita üzerinde sarı ve kırmızı noktalarla gösterilir.

İstasyonun adını görmek için fareyi noktanın üzerinde gezdirin.

Sonrasında hava gözlem ve tahminlerini görmek için tıklayın.

Haritayı değiştirmek için: yaklaştırmak için siyah artı işaretli yeşil düğmeye ve uzaklaştırmak için de eksi işaretli düğmeye hızla tıklayın; bitişik haritalar için yeşil okları kullanın.


METAR-TAF: